Santa Ana

Airport
ICAO code: 
KSNA
Summary
ICAO Region: 
NAM
Territory: 
Location: 
Santa Ana, California,
Coordinates: 
Aerial View: 
33° 40' 28.1" N, 117° 52' 10.238" W
Metar
Observation
KSNA 282053Z 23003KT 10SM CLR 26/M02 A3011 RMK AO2 SLP194 T02611017 58022
Station
Santa Ana, John Wayne Airport-Orange County Airport
Date/Time
2021-11-28 20:53:00
Wind direction
230°
Wind speed
03 kts
Lowest cloud amount
n/a
Temperature
26.1°C
Dew point
-1.7°C
Humidity
15%
Weather condition
n/a

Description

Santa Maria Public Airport, also known as the Capt. G. Allan Hancock Field, is an airport located 5 km south of the central business district of Santa Maria, a city in northern Santa Barbara County, California.

Climatology

Warm Mediterranean climate (Köppen climate classification Csb). Because of the airport's proximity to the ocean, onshore breezes significantly moderate temperatures, resulting in warmer winters and cooler summers compared with places farther inland.

Runways

Designator Length Width Surface Rops
01R/19L 880 23 ASP Yes/Yes
01L/19R 1737 46 ASP Yes/Yes
Airport map: 
Aerial View: 

Accidents and Serious Incidents at or in the vicinity of KSNA

SKYbrary Partners:

Safety knowledge contributed by: